createdAt,value
2019-04-11T00:00:55.670Z,932.48
2019-04-11T00:01:56.319Z,932.50
2019-04-11T00:02:55.564Z,932.51
2019-04-11T00:03:55.637Z,932.53
2019-04-11T00:04:56.610Z,932.51
2019-04-11T00:05:55.432Z,932.51
2019-04-11T00:06:56.087Z,932.53
2019-04-11T00:07:56.565Z,932.50
2019-04-11T00:08:56.398Z,932.49
2019-04-11T00:09:55.243Z,932.52
2019-04-11T00:10:55.546Z,932.56
2019-04-11T00:11:55.136Z,932.48
2019-04-11T00:12:55.107Z,932.54
2019-04-11T00:13:55.727Z,932.52
2019-04-11T00:14:55.997Z,932.53
2019-04-11T00:15:55.062Z,932.57
2019-04-11T00:16:55.420Z,932.50
2019-04-11T00:17:54.865Z,932.53
2019-04-11T00:18:54.821Z,932.55
2019-04-11T00:19:55.751Z,932.54
2019-04-11T00:20:54.711Z,932.52
2019-04-11T00:21:55.236Z,932.54
2019-04-11T00:22:54.630Z,932.55
2019-04-11T00:23:54.610Z,932.54
2019-04-11T00:24:55.517Z,932.55
2019-04-11T00:25:54.488Z,932.53
2019-04-11T00:26:54.886Z,932.52
2019-04-11T00:27:54.381Z,932.52
2019-04-11T00:28:54.347Z,932.51
2019-04-11T00:29:55.424Z,932.51
2019-04-11T00:30:54.683Z,932.53
2019-04-11T00:31:54.917Z,932.49
2019-04-11T00:32:54.182Z,932.47
2019-04-11T00:33:54.294Z,932.47
2019-04-11T00:34:55.107Z,932.48
2019-04-11T00:35:54.017Z,932.52
2019-04-11T00:36:54.881Z,932.50
2019-04-11T00:37:53.921Z,932.50
2019-04-11T00:38:53.864Z,932.50
2019-04-11T00:39:54.154Z,932.52
2019-04-11T00:40:53.768Z,932.56
2019-04-11T00:41:54.397Z,932.52
2019-04-11T00:42:54.690Z,932.51
2019-04-11T00:43:54.640Z,932.49
2019-04-11T00:44:53.975Z,932.56
2019-04-11T00:45:54.067Z,932.50
2019-04-11T00:46:53.498Z,932.49
2019-04-11T00:47:53.437Z,932.52
2019-04-11T00:48:54.477Z,932.50
2019-04-11T00:49:53.367Z,932.52
2019-04-11T00:50:53.819Z,932.52
2019-04-11T00:51:53.271Z,932.53
2019-04-11T00:52:53.707Z,932.52
2019-04-11T00:53:54.139Z,932.52
2019-04-11T00:54:53.242Z,932.52
2019-04-11T00:55:53.606Z,932.60
2019-04-11T00:56:53.011Z,932.53
2019-04-11T00:57:53.096Z,932.53
2019-04-11T00:58:53.803Z,932.52
2019-04-11T00:59:52.894Z,932.53
2019-04-11T01:00:53.516Z,932.52
2019-04-11T01:01:53.398Z,932.53
2019-04-11T01:02:53.705Z,932.59
2019-04-11T01:03:53.652Z,932.58
2019-04-11T01:04:52.879Z,932.52
2019-04-11T01:05:52.599Z,932.53
2019-04-11T01:06:52.539Z,932.56
2019-04-11T01:07:53.393Z,932.56
2019-04-11T01:08:53.646Z,932.53
2019-04-11T01:09:52.720Z,932.51
2019-04-11T01:10:52.364Z,932.53
2019-04-11T01:11:52.303Z,932.51
2019-04-11T01:12:53.201Z,932.54
2019-04-11T01:13:54.642Z,932.52
2019-04-11T01:14:53.145Z,932.50
2019-04-11T01:15:52.391Z,932.52
2019-04-11T01:16:52.689Z,932.51
2019-04-11T01:17:52.021Z,932.52
2019-04-11T01:18:52.072Z,932.51
2019-04-11T01:19:53.108Z,932.52
2019-04-11T01:20:51.891Z,932.53
2019-04-11T01:21:52.849Z,932.51
2019-04-11T01:22:51.784Z,932.52
2019-04-11T01:23:51.737Z,932.51
2019-04-11T01:24:52.320Z,932.55
2019-04-11T01:25:52.671Z,932.53
2019-04-11T01:26:51.824Z,932.53
2019-04-11T01:27:51.550Z,932.49
2019-04-11T01:28:52.533Z,932.50
2019-04-11T01:29:51.602Z,932.50
2019-04-11T01:30:51.406Z,932.57
2019-04-11T01:31:51.656Z,932.58
2019-04-11T01:32:51.325Z,932.53
2019-04-11T01:33:51.822Z,932.58
2019-04-11T01:34:51.218Z,932.58
2019-04-11T01:35:51.171Z,932.58
2019-04-11T01:36:51.338Z,932.57
2019-04-11T01:37:52.219Z,932.57
2019-04-11T01:38:51.029Z,932.60
2019-04-11T01:39:51.660Z,932.58
2019-04-11T01:40:50.948Z,932.59
2019-04-11T01:41:50.967Z,932.61
2019-04-11T01:42:51.339Z,932.65
2019-04-11T01:43:56.284Z,932.64
2019-04-11T01:44:50.759Z,932.61
2019-04-11T01:45:51.766Z,932.64
2019-04-11T01:46:50.718Z,932.62
2019-04-11T01:47:51.061Z,932.62
2019-04-11T01:48:50.558Z,932.60
2019-04-11T01:49:50.523Z,932.61
2019-04-11T01:50:51.759Z,932.60
2019-04-11T01:51:50.429Z,932.60
2019-04-11T01:52:50.855Z,932.60
2019-04-11T01:53:51.065Z,932.63
2019-04-11T01:54:50.278Z,932.59
2019-04-11T01:55:50.457Z,932.62
2019-04-11T01:56:50.182Z,932.61
2019-04-11T01:57:50.133Z,932.53
2019-04-11T01:58:51.011Z,932.52
2019-04-11T01:59:51.286Z,932.53
2019-04-11T02:00:50.921Z,932.53
2019-04-11T02:01:49.962Z,932.53
2019-04-11T02:02:50.731Z,932.50
2019-04-11T02:03:49.852Z,932.53
2019-04-11T02:04:49.803Z,932.47
2019-04-11T02:05:49.756Z,932.46
2019-04-11T02:06:49.963Z,932.48
2019-04-11T02:07:49.662Z,932.43
2019-04-11T02:08:49.614Z,932.45
2019-04-11T02:09:50.506Z,932.48
2019-04-11T02:10:50.807Z,932.43
2019-04-11T02:11:49.944Z,932.44
2019-04-11T02:12:49.427Z,932.47
2019-04-11T02:13:50.315Z,932.44
2019-04-11T02:14:50.154Z,932.45
2019-04-11T02:15:49.442Z,932.46
2019-04-11T02:16:49.616Z,932.45
2019-04-11T02:17:49.203Z,932.43
2019-04-11T02:18:49.849Z,932.43
2019-04-11T02:19:50.214Z,932.44
2019-04-11T02:20:49.292Z,932.43
2019-04-11T02:21:49.640Z,932.49
2019-04-11T02:22:48.968Z,932.50
2019-04-11T02:23:48.920Z,932.49
2019-04-11T02:24:50.072Z,932.45
2019-04-11T02:25:49.072Z,932.44
2019-04-11T02:26:48.773Z,932.47
2019-04-11T02:27:48.731Z,932.50
2019-04-11T02:28:48.865Z,932.47
2019-04-11T02:29:48.842Z,932.45
2019-04-11T02:30:48.749Z,932.43
2019-04-11T02:31:48.571Z,932.45
2019-04-11T02:32:49.860Z,932.46
2019-04-11T02:33:48.923Z,932.45
2019-04-11T02:34:50.473Z,932.48
2019-04-11T02:35:49.342Z,932.44
2019-04-11T02:36:49.037Z,932.44
2019-04-11T02:37:50.611Z,932.42
2019-04-11T02:38:54.174Z,932.40
2019-04-11T02:39:49.431Z,932.42
2019-04-11T02:40:49.915Z,932.42
2019-04-11T02:41:48.174Z,932.40
2019-04-11T02:42:49.712Z,932.40
2019-04-11T02:43:49.120Z,932.39
2019-04-11T02:45:03.507Z,932.41
2019-04-11T02:45:58.099Z,932.42
2019-04-11T02:46:58.136Z,932.37
2019-04-11T02:47:50.590Z,932.39
2019-04-11T02:48:47.747Z,932.37
2019-04-11T02:49:48.272Z,932.35
2019-04-11T02:50:48.070Z,932.33
2019-04-11T02:51:49.357Z,932.30
2019-04-11T02:52:49.556Z,932.28
2019-04-11T02:53:49.171Z,932.27
2019-04-11T02:54:49.205Z,932.32
2019-04-11T02:55:47.517Z,932.28
2019-04-11T02:56:50.354Z,932.29
2019-04-11T02:57:48.327Z,932.28
2019-04-11T02:58:48.250Z,932.22
2019-04-11T02:59:48.906Z,932.22
2019-04-11T03:00:47.165Z,932.23
2019-04-11T03:01:48.656Z,932.20
2019-04-11T03:02:47.925Z,932.20
2019-04-11T03:03:47.441Z,932.22
2019-04-11T03:04:48.193Z,932.21
2019-04-11T03:05:47.084Z,932.24
2019-04-11T03:06:47.920Z,932.20
2019-04-11T03:07:47.730Z,932.22
2019-04-11T03:08:46.789Z,932.27
2019-04-11T03:09:48.703Z,932.25
2019-04-11T03:10:46.709Z,932.25
2019-04-11T03:11:47.235Z,932.24
2019-04-11T03:12:48.471Z,932.27
2019-04-11T03:13:48.283Z,932.25
2019-04-11T03:15:05.747Z,932.23
2019-04-11T03:16:02.191Z,932.25
2019-04-11T03:16:57.277Z,932.22
2019-04-11T03:17:48.490Z,932.25
2019-04-11T03:19:05.997Z,932.25
2019-04-11T03:19:59.530Z,932.24
2019-04-11T03:20:52.940Z,932.28
2019-04-11T03:21:47.302Z,932.25
2019-04-11T03:22:53.040Z,932.29
2019-04-11T03:23:46.767Z,932.29
2019-04-11T03:24:46.996Z,932.28
2019-04-11T03:25:46.900Z,932.34
2019-04-11T03:26:46.293Z,932.31
2019-04-11T03:27:47.447Z,932.36
2019-04-11T03:28:49.156Z,932.29
2019-04-11T03:29:45.865Z,932.30
2019-04-11T03:31:06.850Z,932.32
2019-04-11T03:33:43.476Z,932.29
2019-04-11T03:35:34.923Z,932.24
2019-04-11T03:36:50.265Z,932.20
2019-04-11T03:37:23.565Z,932.25
2019-04-11T03:38:07.638Z,932.19
2019-04-11T03:39:05.420Z,932.19
2019-04-11T03:40:07.887Z,932.24
2019-04-11T03:41:08.628Z,932.23
2019-04-11T03:41:59.764Z,932.23
2019-04-11T03:43:00.292Z,932.24
2019-04-11T03:43:57.093Z,932.18
2019-04-11T03:44:54.962Z,932.22
2019-04-11T03:46:05.137Z,932.18
2019-04-11T03:47:01.310Z,932.21
2019-04-11T03:48:03.746Z,932.14
2019-04-11T03:48:55.720Z,932.15
2019-04-11T03:49:51.848Z,932.18
2019-04-11T03:50:46.601Z,932.15
2019-04-11T03:51:46.047Z,932.10
2019-04-11T03:52:45.190Z,932.15
2019-04-11T03:53:45.053Z,932.10
2019-04-11T03:54:45.556Z,932.13
2019-04-11T03:55:45.556Z,932.10
2019-04-11T03:56:45.829Z,932.09
2019-04-11T03:57:44.492Z,932.05
2019-04-11T03:58:46.230Z,932.06
2019-04-11T03:59:45.798Z,932.01
2019-04-11T04:00:44.722Z,932.02
2019-04-11T04:01:44.627Z,931.98
2019-04-11T04:02:44.482Z,932.00
2019-04-11T04:03:44.681Z,931.98
2019-04-11T04:04:45.542Z,931.95
2019-04-11T04:05:44.777Z,931.93
2019-04-11T04:06:45.832Z,931.97
2019-04-11T04:07:44.423Z,931.95
2019-04-11T04:08:44.538Z,931.95
2019-04-11T04:09:45.919Z,931.92
2019-04-11T04:10:43.883Z,931.93
2019-04-11T04:11:45.017Z,931.90
2019-04-11T04:12:45.206Z,931.90
2019-04-11T04:13:45.524Z,931.89
2019-04-11T04:14:45.273Z,931.87
2019-04-11T04:15:58.296Z,931.85
2019-04-11T04:16:48.247Z,931.86
2019-04-11T04:17:45.161Z,931.81
2019-04-11T04:18:43.808Z,931.81
2019-04-11T04:19:43.816Z,931.79
2019-04-11T04:20:43.965Z,931.78
2019-04-11T04:21:43.511Z,931.76
2019-04-11T04:22:45.636Z,931.76
2019-04-11T04:23:43.408Z,931.74
2019-04-11T04:24:45.494Z,931.71
2019-04-11T04:25:46.699Z,931.72
2019-04-11T04:26:43.279Z,931.70
2019-04-11T04:27:45.042Z,931.74
2019-04-11T04:28:43.069Z,931.72
2019-04-11T04:29:46.671Z,931.74
2019-04-11T04:30:44.355Z,931.70
2019-04-11T04:31:43.045Z,931.70
2019-04-11T04:32:43.415Z,931.72
2019-04-11T04:33:43.079Z,931.69
2019-04-11T04:34:44.359Z,931.70
2019-04-11T04:35:44.530Z,931.68
2019-04-11T04:36:42.823Z,931.75
2019-04-11T04:37:43.378Z,931.68
2019-04-11T04:38:44.370Z,931.69
2019-04-11T04:39:43.637Z,931.68
2019-04-11T04:40:58.405Z,931.70
2019-04-11T04:41:51.923Z,931.66
2019-04-11T04:42:47.720Z,931.70
2019-04-11T04:43:44.298Z,931.67
2019-04-11T04:44:42.909Z,931.72
2019-04-11T04:45:59.723Z,931.67
2019-04-11T04:46:57.219Z,931.69
2019-04-11T04:47:47.688Z,931.64
2019-04-11T04:48:43.329Z,931.67
2019-04-11T04:49:43.510Z,931.64
2019-04-11T04:50:42.265Z,931.67
2019-04-11T04:51:43.560Z,931.64
2019-04-11T04:52:42.821Z,931.67
2019-04-11T04:53:43.035Z,931.65
2019-04-11T04:54:41.810Z,931.64
2019-04-11T04:55:43.396Z,931.60
2019-04-11T04:56:43.124Z,931.61
2019-04-11T04:57:42.925Z,931.60
2019-04-11T04:58:42.100Z,931.60
2019-04-11T04:59:42.542Z,931.57
2019-04-11T05:00:41.528Z,931.59
2019-04-11T05:01:42.149Z,931.55
2019-04-11T05:02:42.178Z,931.54
2019-04-11T05:03:42.378Z,931.55
2019-04-11T05:04:41.326Z,931.50
2019-04-11T05:05:42.421Z,931.53
2019-04-11T05:06:44.776Z,931.46
2019-04-11T05:07:44.100Z,931.46
2019-04-11T05:08:41.150Z,931.47
2019-04-11T05:09:42.511Z,931.41
2019-04-11T05:10:41.303Z,931.44
2019-04-11T05:11:42.117Z,931.42
2019-04-11T05:12:41.842Z,931.44
2019-04-11T05:13:44.614Z,931.45
2019-04-11T05:14:40.912Z,931.43
2019-04-11T05:15:42.280Z,931.40
2019-04-11T05:16:41.803Z,931.40
2019-04-11T05:17:43.595Z,931.39
2019-04-11T05:18:41.885Z,931.39
2019-04-11T05:19:40.621Z,931.40
2019-04-11T05:20:40.763Z,931.37
2019-04-11T05:21:41.444Z,931.36
2019-04-11T05:22:41.505Z,931.41
2019-04-11T05:23:41.658Z,931.38
2019-04-11T05:24:41.055Z,931.37
2019-04-11T05:25:40.350Z,931.36
2019-04-11T05:26:40.303Z,931.38
2019-04-11T05:27:40.256Z,931.34
2019-04-11T05:28:40.408Z,931.36
2019-04-11T05:29:40.161Z,931.34
2019-04-11T05:30:40.115Z,931.37
2019-04-11T05:31:40.795Z,931.34
2019-04-11T05:32:40.009Z,931.37
2019-04-11T05:33:40.132Z,931.35
2019-04-11T05:34:39.915Z,931.34
2019-04-11T05:35:39.879Z,931.38
2019-04-11T05:36:40.903Z,931.34
2019-04-11T05:37:39.771Z,931.37
2019-04-11T05:38:39.724Z,931.35
2019-04-11T05:39:39.863Z,931.32
2019-04-11T05:40:39.864Z,931.32
2019-04-11T05:41:42.052Z,931.33
2019-04-11T05:42:39.665Z,931.30
2019-04-11T05:43:40.494Z,931.33
2019-04-11T05:44:40.746Z,931.31
2019-04-11T05:45:40.146Z,931.27
2019-04-11T05:46:49.117Z,931.28
2019-04-11T05:47:39.407Z,931.28
2019-04-11T05:48:39.252Z,931.29
2019-04-11T05:49:41.602Z,931.28
2019-04-11T05:50:43.315Z,931.26
2019-04-11T05:51:41.665Z,931.27
2019-04-11T05:52:39.980Z,931.23
2019-04-11T05:53:39.025Z,931.23
2019-04-11T05:54:41.859Z,931.23
2019-04-11T05:55:43.311Z,931.23
2019-04-11T05:56:38.875Z,931.21
2019-04-11T05:57:40.051Z,931.15
2019-04-11T05:58:42.131Z,931.20
2019-04-11T05:59:39.078Z,931.17
2019-04-11T06:00:39.100Z,931.17
2019-04-11T06:01:38.640Z,931.23
2019-04-11T06:02:39.518Z,931.21
2019-04-11T06:03:39.969Z,931.19
2019-04-11T06:04:38.517Z,931.14
2019-04-11T06:05:39.153Z,931.20
2019-04-11T06:06:40.183Z,931.14
2019-04-11T06:07:42.071Z,931.19
2019-04-11T06:08:38.323Z,931.15
2019-04-11T06:09:40.488Z,931.08
2019-04-11T06:10:42.809Z,931.11
2019-04-11T06:11:39.090Z,931.06
2019-04-11T06:12:38.122Z,931.10
2019-04-11T06:13:38.088Z,931.06
2019-04-11T06:14:38.040Z,931.04
2019-04-11T06:15:39.677Z,931.07
2019-04-11T06:16:44.876Z,931.04
2019-04-11T06:17:38.526Z,931.03
2019-04-11T06:18:41.880Z,931.03
2019-04-11T06:19:37.805Z,931.00
2019-04-11T06:20:37.745Z,931.02
2019-04-11T06:21:37.711Z,931.00
2019-04-11T06:22:38.084Z,930.99
2019-04-11T06:23:37.604Z,930.97
2019-04-11T06:24:38.559Z,930.96
2019-04-11T06:25:40.228Z,930.99
2019-04-11T06:26:38.630Z,931.00
2019-04-11T06:27:39.032Z,930.95
2019-04-11T06:28:38.094Z,930.94
2019-04-11T06:29:37.321Z,930.91
2019-04-11T06:30:37.287Z,930.89
2019-04-11T06:31:38.166Z,930.91
2019-04-11T06:32:38.297Z,930.93
2019-04-11T06:33:37.139Z,930.90
2019-04-11T06:34:37.599Z,930.95
2019-04-11T06:35:37.835Z,930.94
2019-04-11T06:36:37.073Z,930.91
2019-04-11T06:37:38.037Z,930.94
2019-04-11T06:38:36.899Z,930.94
2019-04-11T06:39:37.804Z,930.91
2019-04-11T06:40:36.804Z,930.93
2019-04-11T06:41:36.914Z,930.91
2019-04-11T06:42:37.264Z,930.85
2019-04-11T06:43:36.675Z,930.89
2019-04-11T06:44:37.667Z,930.88
2019-04-11T06:45:37.692Z,930.90
2019-04-11T06:46:48.510Z,930.88
2019-04-11T06:47:36.774Z,930.85
2019-04-11T06:48:36.428Z,930.85
2019-04-11T06:49:36.401Z,930.88
2019-04-11T06:50:37.525Z,930.88
2019-04-11T06:51:36.286Z,930.85
2019-04-11T06:52:36.994Z,930.91
2019-04-11T06:53:36.481Z,930.85
2019-04-11T06:54:37.133Z,930.86
2019-04-11T06:55:37.066Z,930.86
2019-04-11T06:56:36.917Z,930.89
2019-04-11T06:57:36.300Z,930.86
2019-04-11T06:58:35.957Z,930.85
2019-04-11T06:59:36.529Z,930.87
2019-04-11T07:00:36.950Z,930.90
2019-04-11T07:01:36.246Z,930.87
2019-04-11T07:02:36.878Z,930.84
2019-04-11T07:03:36.278Z,930.86
2019-04-11T07:04:35.821Z,930.88
2019-04-11T07:05:35.631Z,930.87
2019-04-11T07:06:35.733Z,930.90
2019-04-11T07:07:36.161Z,930.86
2019-04-11T07:08:35.487Z,930.91
2019-04-11T07:09:35.454Z,930.90
2019-04-11T07:10:36.246Z,930.88
2019-04-11T07:11:36.266Z,930.92
2019-04-11T07:12:35.312Z,930.91
2019-04-11T07:13:35.266Z,930.87
2019-04-11T07:14:35.438Z,930.91
2019-04-11T07:15:35.583Z,930.91
2019-04-11T07:16:36.234Z,930.89
2019-04-11T07:17:36.852Z,930.89
2019-04-11T07:18:35.683Z,930.88
2019-04-11T07:19:35.189Z,930.85
2019-04-11T07:20:35.727Z,930.87
2019-04-11T07:21:35.429Z,930.88
2019-04-11T07:22:34.867Z,930.86
2019-04-11T07:23:34.783Z,930.89
2019-04-11T07:24:34.747Z,930.83
2019-04-11T07:25:35.231Z,930.83
2019-04-11T07:26:35.121Z,930.82
2019-04-11T07:27:34.607Z,930.83
2019-04-11T07:28:35.703Z,930.81
2019-04-11T07:29:34.561Z,930.76
2019-04-11T07:30:35.362Z,930.78
2019-04-11T07:31:35.498Z,930.77
2019-04-11T07:32:34.392Z,930.73
2019-04-11T07:33:35.407Z,930.73
2019-04-11T07:34:36.213Z,930.74
2019-04-11T07:35:34.230Z,930.71
2019-04-11T07:36:34.184Z,930.72
2019-04-11T07:37:34.124Z,930.74
2019-04-11T07:38:34.093Z,930.75
2019-04-11T07:39:35.364Z,930.74
2019-04-11T07:40:35.250Z,930.74
2019-04-11T07:41:34.032Z,930.67
2019-04-11T07:42:35.780Z,930.69
2019-04-11T07:43:33.855Z,930.71
2019-04-11T07:44:34.114Z,930.71
2019-04-11T07:45:34.352Z,930.71
2019-04-11T07:46:34.996Z,930.72
2019-04-11T07:47:33.666Z,930.76
2019-04-11T07:48:33.854Z,930.72
2019-04-11T07:49:33.561Z,930.76
2019-04-11T07:50:33.512Z,930.71
2019-04-11T07:51:34.374Z,930.68
2019-04-11T07:52:34.520Z,930.73
2019-04-11T07:53:33.724Z,930.74
2019-04-11T07:54:34.592Z,930.78
2019-04-11T07:55:34.414Z,930.80
2019-04-11T07:56:33.276Z,930.74
2019-04-11T07:57:33.197Z,930.77
2019-04-11T07:58:33.135Z,930.80
2019-04-11T07:59:33.869Z,930.80
2019-04-11T08:00:38.828Z,930.81
2019-04-11T08:01:33.886Z,930.80
2019-04-11T08:02:33.365Z,930.81
2019-04-11T08:03:32.915Z,930.80
2019-04-11T08:04:33.061Z,930.81
2019-04-11T08:05:32.821Z,930.77
2019-04-11T08:06:33.337Z,930.82
2019-04-11T08:07:32.792Z,930.84
2019-04-11T08:08:32.666Z,930.82
2019-04-11T08:09:33.493Z,930.81
2019-04-11T08:10:33.042Z,930.83
2019-04-11T08:11:33.811Z,930.87
2019-04-11T08:12:32.480Z,930.84
2019-04-11T08:13:32.476Z,930.81
2019-04-11T08:14:32.844Z,930.86
2019-04-11T08:15:33.433Z,930.86
2019-04-11T08:16:32.973Z,930.91
2019-04-11T08:17:37.666Z,930.91
2019-04-11T08:18:32.820Z,930.92
2019-04-11T08:19:33.085Z,930.94
2019-04-11T08:20:33.256Z,930.97
2019-04-11T08:21:35.431Z,930.99
2019-04-11T08:22:32.875Z,930.96
2019-04-11T08:23:31.977Z,930.97
2019-04-11T08:24:32.249Z,930.97
2019-04-11T08:25:31.891Z,931.00
2019-04-11T08:26:31.834Z,930.93
2019-04-11T08:27:31.820Z,930.99
2019-04-11T08:28:33.925Z,931.01
2019-04-11T08:29:31.680Z,930.99
2019-04-11T08:30:32.829Z,930.93
2019-04-11T08:31:32.634Z,931.03
2019-04-11T08:32:31.707Z,931.01
2019-04-11T08:33:31.509Z,930.96
2019-04-11T08:34:31.448Z,930.97
2019-04-11T08:35:33.202Z,930.95
2019-04-11T08:36:31.721Z,930.96
2019-04-11T08:37:31.659Z,930.93
2019-04-11T08:38:32.200Z,930.92
2019-04-11T08:39:31.288Z,930.95
2019-04-11T08:40:31.165Z,930.92
2019-04-11T08:41:31.641Z,930.94
2019-04-11T08:42:31.716Z,930.93
2019-04-11T08:43:31.226Z,930.96
2019-04-11T08:44:32.108Z,930.94
2019-04-11T08:45:32.015Z,930.90
2019-04-11T08:46:30.955Z,930.91
2019-04-11T08:47:41.564Z,930.93
2019-04-11T08:48:30.835Z,930.97
2019-04-11T08:49:32.198Z,930.96
2019-04-11T08:50:30.707Z,930.98
2019-04-11T08:51:31.565Z,930.96
2019-04-11T08:52:31.914Z,931.03
2019-04-11T08:53:30.890Z,930.97
2019-04-11T08:54:31.396Z,930.98
2019-04-11T08:55:43.016Z,931.04
2019-04-11T08:56:31.338Z,931.02
2019-04-11T08:57:30.364Z,931.04
2019-04-11T08:58:30.940Z,931.08
2019-04-11T08:59:30.271Z,931.04
2019-04-11T09:00:31.461Z,931.08
2019-04-11T09:01:30.191Z,931.06
2019-04-11T09:02:31.111Z,931.08
2019-04-11T09:03:30.096Z,931.12
2019-04-11T09:04:30.273Z,931.12
2019-04-11T09:05:31.191Z,931.16
2019-04-11T09:06:30.627Z,931.15
2019-04-11T09:07:29.894Z,931.18
2019-04-11T09:08:30.144Z,931.21
2019-04-11T09:09:29.878Z,931.16
2019-04-11T09:10:29.753Z,931.23
2019-04-11T09:11:30.845Z,931.24
2019-04-11T09:12:30.799Z,931.17
2019-04-11T09:13:29.613Z,931.22
2019-04-11T09:14:30.507Z,931.22
2019-04-11T09:15:29.691Z,931.21
2019-04-11T09:16:29.819Z,931.24
2019-04-11T09:17:30.328Z,931.25
2019-04-11T09:18:30.231Z,931.23
2019-04-11T09:19:30.564Z,931.22
2019-04-11T09:20:29.799Z,931.26
2019-04-11T09:21:29.237Z,931.28
2019-04-11T09:22:29.232Z,931.27
2019-04-11T09:23:30.035Z,931.28
2019-04-11T09:24:29.107Z,931.29
2019-04-11T09:25:30.488Z,931.30
2019-04-11T09:26:29.001Z,931.29
2019-04-11T09:27:28.955Z,931.27
2019-04-11T09:28:29.234Z,931.27
2019-04-11T09:29:28.873Z,931.28
2019-04-11T09:30:28.815Z,931.32
2019-04-11T09:31:29.603Z,931.32
2019-04-11T09:32:28.719Z,931.30
2019-04-11T09:33:28.882Z,931.32
2019-04-11T09:34:28.638Z,931.36
2019-04-11T09:35:28.591Z,931.34
2019-04-11T09:36:29.541Z,931.36
2019-04-11T09:37:29.560Z,931.41
2019-04-11T09:38:28.583Z,931.37
2019-04-11T09:39:28.858Z,931.44
2019-04-11T09:40:28.356Z,931.39
2019-04-11T09:41:28.296Z,931.36
2019-04-11T09:42:28.436Z,931.42
2019-04-11T09:43:28.354Z,931.38
2019-04-11T09:44:28.866Z,931.35
2019-04-11T09:45:28.122Z,931.42
2019-04-11T09:46:28.142Z,931.44
2019-04-11T09:47:28.293Z,931.43
2019-04-11T09:48:27.968Z,931.43
2019-04-11T09:49:29.012Z,931.46
2019-04-11T09:50:28.714Z,931.48
2019-04-11T09:51:29.487Z,931.45
2019-04-11T09:52:28.954Z,931.50
2019-04-11T09:53:28.283Z,931.53
2019-04-11T09:54:28.269Z,931.52
2019-04-11T09:55:27.654Z,931.54
2019-04-11T09:56:27.615Z,931.53
2019-04-11T09:57:28.851Z,931.53
2019-04-11T09:58:27.587Z,931.55
2019-04-11T09:59:27.468Z,931.51
2019-04-11T10:00:28.787Z,931.56
2019-04-11T10:01:27.361Z,931.54
2019-04-11T10:02:27.548Z,931.57
2019-04-11T10:03:27.882Z,931.59
2019-04-11T10:04:27.647Z,931.56
2019-04-11T10:05:27.172Z,931.56
2019-04-11T10:06:28.129Z,931.55
2019-04-11T10:07:28.151Z,931.55
2019-04-11T10:08:27.045Z,931.57
2019-04-11T10:09:28.105Z,931.62
2019-04-11T10:10:26.939Z,931.60
2019-04-11T10:11:28.147Z,931.62
2019-04-11T10:12:27.629Z,931.62
2019-04-11T10:13:26.948Z,931.66
2019-04-11T10:14:26.769Z,931.68
2019-04-11T10:15:27.225Z,931.68
2019-04-11T10:16:26.676Z,931.70
2019-04-11T10:17:26.973Z,931.72
2019-04-11T10:18:30.985Z,931.73
2019-04-11T10:19:27.741Z,931.73
2019-04-11T10:20:26.839Z,931.77
2019-04-11T10:21:26.453Z,931.75
2019-04-11T10:22:27.066Z,931.77
2019-04-11T10:23:27.015Z,931.78
2019-04-11T10:24:26.457Z,931.85
2019-04-11T10:25:28.245Z,931.79
2019-04-11T10:26:26.201Z,931.78
2019-04-11T10:27:26.754Z,931.81
2019-04-11T10:28:27.256Z,931.85
2019-04-11T10:29:28.964Z,931.92
2019-04-11T10:30:26.023Z,931.79
2019-04-11T10:31:26.300Z,931.84
2019-04-11T10:32:25.932Z,931.82
2019-04-11T10:33:25.878Z,931.87
2019-04-11T10:34:25.847Z,931.87
2019-04-11T10:35:26.114Z,931.81
2019-04-11T10:36:25.751Z,931.89
2019-04-11T10:37:25.704Z,931.91
2019-04-11T10:38:26.602Z,931.91
2019-04-11T10:39:25.619Z,931.92
2019-04-11T10:40:26.074Z,931.93
2019-04-11T10:41:25.523Z,931.93
2019-04-11T10:42:26.620Z,931.99
2019-04-11T10:43:26.543Z,931.98
2019-04-11T10:44:25.708Z,932.01
2019-04-11T10:45:25.346Z,931.91
2019-04-11T10:46:25.288Z,932.01
2019-04-11T10:47:25.242Z,932.08
2019-04-11T10:48:36.831Z,932.08
2019-04-11T10:49:26.302Z,932.08
2019-04-11T10:50:25.709Z,932.02
2019-04-11T10:51:25.074Z,932.03
2019-04-11T10:52:25.043Z,932.11
2019-04-11T10:53:25.037Z,932.20
2019-04-11T10:54:25.956Z,932.18
2019-04-11T10:55:25.322Z,932.21
2019-04-11T10:56:24.871Z,932.22
2019-04-11T10:57:24.819Z,932.14
2019-04-11T10:58:24.799Z,932.06
2019-04-11T10:59:26.803Z,932.05
2019-04-11T11:00:24.710Z,932.15
2019-04-11T11:01:25.602Z,932.22
2019-04-11T11:02:25.160Z,932.27
2019-04-11T11:03:24.596Z,932.24
2019-04-11T11:04:25.587Z,932.09
2019-04-11T11:05:24.520Z,932.19
2019-04-11T11:06:24.460Z,932.29
2019-04-11T11:07:24.709Z,932.12
2019-04-11T11:08:25.610Z,932.12
2019-04-11T11:09:24.345Z,932.09
2019-04-11T11:10:24.317Z,932.09
2019-04-11T11:11:24.270Z,932.13
2019-04-11T11:12:25.384Z,932.15
2019-04-11T11:13:24.188Z,932.13
2019-04-11T11:14:24.839Z,932.14
2019-04-11T11:15:25.241Z,932.14
2019-04-11T11:16:24.822Z,932.17
2019-04-11T11:17:51.674Z,932.18
2019-04-11T11:18:45.911Z,932.12
2019-04-11T11:19:41.932Z,932.14
2019-04-11T11:20:29.961Z,932.16
2019-04-11T11:21:28.577Z,932.14
2019-04-11T11:22:23.854Z,932.16
2019-04-11T11:23:24.709Z,932.14
2019-04-11T11:24:23.967Z,932.17
2019-04-11T11:25:24.680Z,932.16
2019-04-11T11:26:25.633Z,932.15
2019-04-11T11:27:24.413Z,932.22
2019-04-11T11:28:23.806Z,932.13
2019-04-11T11:29:24.317Z,932.18
2019-04-11T11:30:23.501Z,932.16
2019-04-11T11:31:24.417Z,932.18
2019-04-11T11:32:23.410Z,932.12
2019-04-11T11:33:23.944Z,932.19
2019-04-11T11:34:24.790Z,932.16
2019-04-11T11:35:27.605Z,932.16
2019-04-11T11:36:23.548Z,932.18
2019-04-11T11:37:23.189Z,932.17
2019-04-11T11:38:24.141Z,932.17
2019-04-11T11:39:23.116Z,932.21
2019-04-11T11:40:23.784Z,932.17
2019-04-11T11:41:23.015Z,932.20
2019-04-11T11:42:23.000Z,932.22
2019-04-11T11:43:23.192Z,932.23
2019-04-11T11:44:22.886Z,932.23
2019-04-11T11:45:23.619Z,932.28
2019-04-11T11:46:25.971Z,932.23
2019-04-11T11:47:23.735Z,932.25
2019-04-11T11:48:24.550Z,932.30
2019-04-11T11:49:37.522Z,932.29
2019-04-11T11:50:23.766Z,932.30
2019-04-11T11:51:23.863Z,932.32
2019-04-11T11:52:22.813Z,932.33
2019-04-11T11:53:22.969Z,932.34
2019-04-11T11:54:22.456Z,932.32
2019-04-11T11:55:22.421Z,932.34
2019-04-11T11:56:22.404Z,932.37
2019-04-11T11:57:22.543Z,932.33
2019-04-11T11:58:23.595Z,932.34
2019-04-11T11:59:23.009Z,932.35
2019-04-11T12:00:23.461Z,932.32
2019-04-11T12:01:22.144Z,932.35
2019-04-11T12:02:22.977Z,932.37
2019-04-11T12:03:25.984Z,932.38
2019-04-11T12:04:24.114Z,932.36
2019-04-11T12:05:22.317Z,932.35
2019-04-11T12:06:22.786Z,932.37
2019-04-11T12:07:23.001Z,932.42
2019-04-11T12:08:22.316Z,932.39
2019-04-11T12:09:22.412Z,932.40
2019-04-11T12:10:22.553Z,932.40
2019-04-11T12:11:22.026Z,932.42
2019-04-11T12:12:21.884Z,932.40
2019-04-11T12:13:22.068Z,932.45
2019-04-11T12:14:22.203Z,932.40
2019-04-11T12:15:22.494Z,932.46
2019-04-11T12:16:22.146Z,932.44
2019-04-11T12:17:22.695Z,932.48
2019-04-11T12:18:21.660Z,932.48
2019-04-11T12:19:22.179Z,932.45
2019-04-11T12:20:21.322Z,932.44
2019-04-11T12:21:26.053Z,932.45
2019-04-11T12:22:21.222Z,932.48
2019-04-11T12:23:22.705Z,932.48
2019-04-11T12:24:21.147Z,932.47
2019-04-11T12:25:21.106Z,932.49
2019-04-11T12:26:22.095Z,932.42
2019-04-11T12:27:21.044Z,932.45
2019-04-11T12:28:21.336Z,932.45
2019-04-11T12:29:21.849Z,932.45
2019-04-11T12:30:23.962Z,932.44